sensor_id;sensor_type;location;lat;lon;timestamp;P1;durP1;ratioP1;P2;durP2;ratioP2
9124;SDS011;4597;48.730;9.114;2022-11-23T00:01:12;2.37;;;1.87;;
9124;SDS011;4597;48.730;9.114;2022-11-23T00:03:48;2.70;;;1.80;;
9124;SDS011;4597;48.730;9.114;2022-11-23T00:06:16;2.47;;;1.83;;
9124;SDS011;4597;48.730;9.114;2022-11-23T00:08:42;3.03;;;1.33;;
9124;SDS011;4597;48.730;9.114;2022-11-23T00:11:09;2.57;;;1.63;;
9124;SDS011;4597;48.730;9.114;2022-11-23T00:13:35;4.43;;;1.70;;
9124;SDS011;4597;48.730;9.114;2022-11-23T00:16:11;1.63;;;1.40;;
9124;SDS011;4597;48.730;9.114;2022-11-23T00:18:39;3.13;;;1.70;;
9124;SDS011;4597;48.730;9.114;2022-11-23T00:21:05;1.37;;;1.30;;
9124;SDS011;4597;48.730;9.114;2022-11-23T00:23:34;2.90;;;1.60;;
9124;SDS011;4597;48.730;9.114;2022-11-23T00:26:00;1.53;;;1.43;;
9124;SDS011;4597;48.730;9.114;2022-11-23T00:28:26;4.40;;;1.97;;
9124;SDS011;4597;48.730;9.114;2022-11-23T00:30:52;2.33;;;1.60;;
9124;SDS011;4597;48.730;9.114;2022-11-23T00:33:18;2.63;;;1.77;;
9124;SDS011;4597;48.730;9.114;2022-11-23T00:35:43;3.13;;;1.70;;
9124;SDS011;4597;48.730;9.114;2022-11-23T00:38:09;3.60;;;1.80;;
9124;SDS011;4597;48.730;9.114;2022-11-23T00:40:35;2.40;;;1.50;;
9124;SDS011;4597;48.730;9.114;2022-11-23T00:43:00;3.37;;;1.67;;
9124;SDS011;4597;48.730;9.114;2022-11-23T00:45:26;3.20;;;1.70;;
9124;SDS011;4597;48.730;9.114;2022-11-23T00:47:51;1.70;;;1.60;;
9124;SDS011;4597;48.730;9.114;2022-11-23T00:50:17;1.53;;;1.43;;
9124;SDS011;4597;48.730;9.114;2022-11-23T00:52:43;3.17;;;1.33;;
9124;SDS011;4597;48.730;9.114;2022-11-23T00:55:08;1.97;;;1.47;;
9124;SDS011;4597;48.730;9.114;2022-11-23T00:57:34;2.03;;;1.43;;
9124;SDS011;4597;48.730;9.114;2022-11-23T01:00:00;2.83;;;1.50;;
9124;SDS011;4597;48.730;9.114;2022-11-23T01:02:25;1.70;;;1.17;;
9124;SDS011;4597;48.730;9.114;2022-11-23T01:04:51;2.03;;;1.57;;
9124;SDS011;4597;48.730;9.114;2022-11-23T01:07:16;5.30;;;1.93;;
9124;SDS011;4597;48.730;9.114;2022-11-23T01:09:42;1.90;;;1.60;;
9124;SDS011;4597;48.730;9.114;2022-11-23T01:12:07;2.83;;;1.50;;
9124;SDS011;4597;48.730;9.114;2022-11-23T01:14:33;1.77;;;1.33;;
9124;SDS011;4597;48.730;9.114;2022-11-23T01:16:58;2.13;;;1.20;;
9124;SDS011;4597;48.730;9.114;2022-11-23T01:19:24;1.93;;;1.63;;
9124;SDS011;4597;48.730;9.114;2022-11-23T01:21:50;1.80;;;1.20;;
9124;SDS011;4597;48.730;9.114;2022-11-23T01:24:16;2.07;;;1.40;;
9124;SDS011;4597;48.730;9.114;2022-11-23T01:26:44;2.40;;;1.60;;
9124;SDS011;4597;48.730;9.114;2022-11-23T01:29:14;5.10;;;1.90;;
9124;SDS011;4597;48.730;9.114;2022-11-23T01:31:39;1.77;;;1.20;;
9124;SDS011;4597;48.730;9.114;2022-11-23T01:34:05;2.70;;;1.60;;
9124;SDS011;4597;48.730;9.114;2022-11-23T01:36:31;2.73;;;1.57;;
9124;SDS011;4597;48.730;9.114;2022-11-23T01:38:59;2.33;;;1.33;;
9124;SDS011;4597;48.730;9.114;2022-11-23T01:41:26;3.63;;;2.07;;
9124;SDS011;4597;48.730;9.114;2022-11-23T01:44:00;1.23;;;1.13;;
9124;SDS011;4597;48.730;9.114;2022-11-23T01:46:44;2.13;;;1.50;;
9124;SDS011;4597;48.730;9.114;2022-11-23T01:49:10;2.73;;;1.80;;
9124;SDS011;4597;48.730;9.114;2022-11-23T01:51:36;3.17;;;1.63;;
9124;SDS011;4597;48.730;9.114;2022-11-23T01:54:15;1.27;;;1.17;;
9124;SDS011;4597;48.730;9.114;2022-11-23T01:56:46;2.97;;;1.60;;
9124;SDS011;4597;48.730;9.114;2022-11-23T01:59:19;3.77;;;1.70;;
9124;SDS011;4597;48.730;9.114;2022-11-23T02:01:46;1.80;;;1.70;;
9124;SDS011;4597;48.730;9.114;2022-11-23T02:04:15;2.90;;;1.40;;
9124;SDS011;4597;48.730;9.114;2022-11-23T02:06:46;3.77;;;1.30;;
9124;SDS011;4597;48.730;9.114;2022-11-23T02:09:12;2.20;;;1.57;;
9124;SDS011;4597;48.730;9.114;2022-11-23T02:11:39;2.63;;;1.50;;
9124;SDS011;4597;48.730;9.114;2022-11-23T02:14:05;2.20;;;1.43;;
9124;SDS011;4597;48.730;9.114;2022-11-23T02:16:30;3.20;;;1.50;;
9124;SDS011;4597;48.730;9.114;2022-11-23T02:18:57;3.20;;;1.60;;
9124;SDS011;4597;48.730;9.114;2022-11-23T02:21:22;1.60;;;1.20;;
9124;SDS011;4597;48.730;9.114;2022-11-23T02:23:55;3.17;;;1.30;;
9124;SDS011;4597;48.730;9.114;2022-11-23T02:26:30;2.30;;;1.60;;
9124;SDS011;4597;48.730;9.114;2022-11-23T02:29:05;3.53;;;1.80;;
9124;SDS011;4597;48.730;9.114;2022-11-23T02:31:35;1.50;;;1.40;;
9124;SDS011;4597;48.730;9.114;2022-11-23T02:34:01;2.63;;;1.23;;
9124;SDS011;4597;48.730;9.114;2022-11-23T02:38:56;4.57;;;1.53;;
9124;SDS011;4597;48.730;9.114;2022-11-23T02:41:23;1.20;;;1.10;;
9124;SDS011;4597;48.730;9.114;2022-11-23T02:43:49;2.87;;;1.27;;
9124;SDS011;4597;48.730;9.114;2022-11-23T02:46:18;1.33;;;1.23;;
9124;SDS011;4597;48.730;9.114;2022-11-23T02:48:44;2.20;;;1.20;;
9124;SDS011;4597;48.730;9.114;2022-11-23T02:51:09;2.83;;;1.30;;
9124;SDS011;4597;48.730;9.114;2022-11-23T02:53:35;2.43;;;1.40;;
9124;SDS011;4597;48.730;9.114;2022-11-23T02:56:00;1.63;;;1.53;;
9124;SDS011;4597;48.730;9.114;2022-11-23T02:58:26;3.50;;;1.50;;
9124;SDS011;4597;48.730;9.114;2022-11-23T03:00:51;2.07;;;1.43;;
9124;SDS011;4597;48.730;9.114;2022-11-23T03:03:17;1.17;;;1.10;;
9124;SDS011;4597;48.730;9.114;2022-11-23T03:05:42;3.53;;;1.83;;
9124;SDS011;4597;48.730;9.114;2022-11-23T03:08:08;2.60;;;1.27;;
9124;SDS011;4597;48.730;9.114;2022-11-23T03:10:34;3.30;;;1.67;;
9124;SDS011;4597;48.730;9.114;2022-11-23T03:13:00;2.13;;;1.40;;
9124;SDS011;4597;48.730;9.114;2022-11-23T03:15:26;1.80;;;1.20;;
9124;SDS011;4597;48.730;9.114;2022-11-23T03:17:52;1.73;;;1.50;;
9124;SDS011;4597;48.730;9.114;2022-11-23T03:20:18;2.70;;;1.50;;
9124;SDS011;4597;48.730;9.114;2022-11-23T03:22:43;1.40;;;1.30;;
9124;SDS011;4597;48.730;9.114;2022-11-23T03:25:09;2.67;;;1.20;;
9124;SDS011;4597;48.730;9.114;2022-11-23T03:27:36;3.33;;;1.30;;
9124;SDS011;4597;48.730;9.114;2022-11-23T03:30:02;3.00;;;1.40;;
9124;SDS011;4597;48.730;9.114;2022-11-23T03:32:28;2.43;;;1.40;;
9124;SDS011;4597;48.730;9.114;2022-11-23T03:34:53;1.90;;;1.40;;
9124;SDS011;4597;48.730;9.114;2022-11-23T03:37:19;3.73;;;1.40;;
9124;SDS011;4597;48.730;9.114;2022-11-23T03:39:44;3.20;;;1.27;;
9124;SDS011;4597;48.730;9.114;2022-11-23T03:42:10;2.07;;;1.43;;
9124;SDS011;4597;48.730;9.114;2022-11-23T03:44:35;4.83;;;1.67;;
9124;SDS011;4597;48.730;9.114;2022-11-23T03:47:01;7.07;;;2.10;;
9124;SDS011;4597;48.730;9.114;2022-11-23T03:49:27;1.30;;;1.20;;
9124;SDS011;4597;48.730;9.114;2022-11-23T03:51:52;1.70;;;1.30;;
9124;SDS011;4597;48.730;9.114;2022-11-23T03:54:18;3.63;;;1.60;;
9124;SDS011;4597;48.730;9.114;2022-11-23T03:56:43;2.47;;;1.60;;
9124;SDS011;4597;48.730;9.114;2022-11-23T03:59:09;2.07;;;1.50;;
9124;SDS011;4597;48.730;9.114;2022-11-23T04:01:34;3.90;;;1.43;;
9124;SDS011;4597;48.730;9.114;2022-11-23T04:04:00;2.33;;;1.40;;
9124;SDS011;4597;48.730;9.114;2022-11-23T04:06:25;1.73;;;1.17;;
9124;SDS011;4597;48.730;9.114;2022-11-23T04:08:51;1.60;;;1.50;;
9124;SDS011;4597;48.730;9.114;2022-11-23T04:11:16;2.13;;;1.33;;
9124;SDS011;4597;48.730;9.114;2022-11-23T04:13:42;2.10;;;1.57;;
9124;SDS011;4597;48.730;9.114;2022-11-23T04:16:07;1.97;;;1.73;;
9124;SDS011;4597;48.730;9.114;2022-11-23T04:18:33;1.60;;;1.50;;
9124;SDS011;4597;48.730;9.114;2022-11-23T04:20:58;3.00;;;1.30;;
9124;SDS011;4597;48.730;9.114;2022-11-23T04:23:24;1.57;;;1.47;;
9124;SDS011;4597;48.730;9.114;2022-11-23T04:25:49;2.80;;;1.40;;
9124;SDS011;4597;48.730;9.114;2022-11-23T04:28:15;2.97;;;1.27;;
9124;SDS011;4597;48.730;9.114;2022-11-23T04:30:41;1.90;;;1.30;;
9124;SDS011;4597;48.730;9.114;2022-11-23T04:33:06;3.20;;;1.33;;
9124;SDS011;4597;48.730;9.114;2022-11-23T04:35:32;1.93;;;1.40;;
9124;SDS011;4597;48.730;9.114;2022-11-23T04:37:58;2.13;;;1.33;;
9124;SDS011;4597;48.730;9.114;2022-11-23T04:40:23;2.53;;;1.43;;
9124;SDS011;4597;48.730;9.114;2022-11-23T04:42:49;1.30;;;1.20;;
9124;SDS011;4597;48.730;9.114;2022-11-23T04:45:14;1.43;;;1.30;;
9124;SDS011;4597;48.730;9.114;2022-11-23T04:47:40;2.90;;;1.60;;
9124;SDS011;4597;48.730;9.114;2022-11-23T04:50:05;2.30;;;1.47;;
9124;SDS011;4597;48.730;9.114;2022-11-23T04:52:31;5.20;;;1.57;;
9124;SDS011;4597;48.730;9.114;2022-11-23T04:54:57;2.07;;;1.30;;
9124;SDS011;4597;48.730;9.114;2022-11-23T04:57:22;1.67;;;1.47;;
9124;SDS011;4597;48.730;9.114;2022-11-23T04:59:48;3.83;;;1.60;;
9124;SDS011;4597;48.730;9.114;2022-11-23T05:02:13;2.90;;;1.67;;
9124;SDS011;4597;48.730;9.114;2022-11-23T05:04:39;4.90;;;2.10;;
9124;SDS011;4597;48.730;9.114;2022-11-23T05:07:04;2.23;;;1.70;;
9124;SDS011;4597;48.730;9.114;2022-11-23T05:09:30;7.50;;;2.57;;
9124;SDS011;4597;48.730;9.114;2022-11-23T05:11:56;3.97;;;2.40;;
9124;SDS011;4597;48.730;9.114;2022-11-23T05:14:21;4.43;;;2.03;;
9124;SDS011;4597;48.730;9.114;2022-11-23T05:16:47;4.30;;;2.53;;
9124;SDS011;4597;48.730;9.114;2022-11-23T05:19:12;2.73;;;1.53;;
9124;SDS011;4597;48.730;9.114;2022-11-23T05:21:38;2.23;;;1.80;;
9124;SDS011;4597;48.730;9.114;2022-11-23T05:24:04;2.87;;;1.40;;
9124;SDS011;4597;48.730;9.114;2022-11-23T05:26:29;3.90;;;1.57;;
9124;SDS011;4597;48.730;9.114;2022-11-23T05:28:55;3.00;;;1.63;;
9124;SDS011;4597;48.730;9.114;2022-11-23T05:31:20;4.23;;;2.17;;
9124;SDS011;4597;48.730;9.114;2022-11-23T05:33:46;5.77;;;3.60;;
9124;SDS011;4597;48.730;9.114;2022-11-23T05:36:11;5.80;;;4.27;;
9124;SDS011;4597;48.730;9.114;2022-11-23T05:38:38;7.07;;;3.90;;
9124;SDS011;4597;48.730;9.114;2022-11-23T05:41:04;6.23;;;4.20;;
9124;SDS011;4597;48.730;9.114;2022-11-23T05:43:30;5.70;;;3.03;;
9124;SDS011;4597;48.730;9.114;2022-11-23T05:45:57;3.10;;;2.33;;
9124;SDS011;4597;48.730;9.114;2022-11-23T05:48:23;4.80;;;2.33;;
9124;SDS011;4597;48.730;9.114;2022-11-23T05:50:49;4.17;;;1.93;;
9124;SDS011;4597;48.730;9.114;2022-11-23T05:53:15;3.60;;;2.03;;
9124;SDS011;4597;48.730;9.114;2022-11-23T05:55:40;2.67;;;2.13;;
9124;SDS011;4597;48.730;9.114;2022-11-23T05:58:06;3.57;;;1.80;;
9124;SDS011;4597;48.730;9.114;2022-11-23T06:00:31;4.77;;;2.70;;
9124;SDS011;4597;48.730;9.114;2022-11-23T06:03:00;4.13;;;2.23;;
9124;SDS011;4597;48.730;9.114;2022-11-23T06:05:27;4.30;;;2.30;;
9124;SDS011;4597;48.730;9.114;2022-11-23T06:07:53;2.40;;;1.80;;
9124;SDS011;4597;48.730;9.114;2022-11-23T06:10:18;3.87;;;2.27;;
9124;SDS011;4597;48.730;9.114;2022-11-23T06:12:44;3.27;;;2.17;;
9124;SDS011;4597;48.730;9.114;2022-11-23T06:15:10;3.43;;;1.80;;
9124;SDS011;4597;48.730;9.114;2022-11-23T06:17:36;3.93;;;2.00;;
9124;SDS011;4597;48.730;9.114;2022-11-23T06:20:01;3.23;;;1.90;;
9124;SDS011;4597;48.730;9.114;2022-11-23T06:22:28;2.40;;;1.77;;
9124;SDS011;4597;48.730;9.114;2022-11-23T06:24:54;4.53;;;1.80;;
9124;SDS011;4597;48.730;9.114;2022-11-23T06:27:19;2.30;;;1.60;;
9124;SDS011;4597;48.730;9.114;2022-11-23T06:29:45;3.80;;;1.70;;
9124;SDS011;4597;48.730;9.114;2022-11-23T06:32:11;3.73;;;2.00;;
9124;SDS011;4597;48.730;9.114;2022-11-23T06:34:36;4.13;;;2.00;;
9124;SDS011;4597;48.730;9.114;2022-11-23T06:37:02;5.23;;;2.63;;
9124;SDS011;4597;48.730;9.114;2022-11-23T06:39:27;2.50;;;2.30;;
9124;SDS011;4597;48.730;9.114;2022-11-23T06:41:53;4.20;;;2.47;;
9124;SDS011;4597;48.730;9.114;2022-11-23T06:44:20;3.37;;;2.07;;
9124;SDS011;4597;48.730;9.114;2022-11-23T06:46:45;5.63;;;2.80;;
9124;SDS011;4597;48.730;9.114;2022-11-23T06:49:11;6.07;;;2.70;;
9124;SDS011;4597;48.730;9.114;2022-11-23T06:51:36;3.37;;;2.20;;
9124;SDS011;4597;48.730;9.114;2022-11-23T06:54:02;7.73;;;2.43;;
9124;SDS011;4597;48.730;9.114;2022-11-23T06:56:29;5.73;;;2.30;;
9124;SDS011;4597;48.730;9.114;2022-11-23T06:58:55;3.40;;;2.60;;
9124;SDS011;4597;48.730;9.114;2022-11-23T07:01:21;6.67;;;2.57;;
9124;SDS011;4597;48.730;9.114;2022-11-23T07:03:46;3.67;;;2.60;;
9124;SDS011;4597;48.730;9.114;2022-11-23T07:06:12;3.07;;;2.43;;
9124;SDS011;4597;48.730;9.114;2022-11-23T07:08:37;4.23;;;2.40;;
9124;SDS011;4597;48.730;9.114;2022-11-23T07:11:08;4.63;;;2.50;;
9124;SDS011;4597;48.730;9.114;2022-11-23T07:13:35;4.13;;;2.90;;
9124;SDS011;4597;48.730;9.114;2022-11-23T07:16:00;6.33;;;2.90;;
9124;SDS011;4597;48.730;9.114;2022-11-23T07:18:26;5.63;;;2.90;;
9124;SDS011;4597;48.730;9.114;2022-11-23T07:20:51;6.37;;;2.90;;
9124;SDS011;4597;48.730;9.114;2022-11-23T07:23:17;4.90;;;2.90;;
9124;SDS011;4597;48.730;9.114;2022-11-23T07:25:43;4.93;;;3.30;;
9124;SDS011;4597;48.730;9.114;2022-11-23T07:28:09;3.77;;;2.90;;
9124;SDS011;4597;48.730;9.114;2022-11-23T07:30:36;4.73;;;3.03;;
9124;SDS011;4597;48.730;9.114;2022-11-23T07:33:03;4.83;;;3.30;;
9124;SDS011;4597;48.730;9.114;2022-11-23T07:35:30;3.50;;;2.90;;
9124;SDS011;4597;48.730;9.114;2022-11-23T07:37:57;5.03;;;2.90;;
9124;SDS011;4597;48.730;9.114;2022-11-23T07:40:22;5.20;;;2.80;;
9124;SDS011;4597;48.730;9.114;2022-11-23T07:42:48;3.73;;;2.70;;
9124;SDS011;4597;48.730;9.114;2022-11-23T07:45:14;3.83;;;2.77;;
9124;SDS011;4597;48.730;9.114;2022-11-23T07:47:39;3.93;;;3.13;;
9124;SDS011;4597;48.730;9.114;2022-11-23T07:50:05;7.37;;;3.30;;
9124;SDS011;4597;48.730;9.114;2022-11-23T07:52:34;23.93;;;7.73;;
9124;SDS011;4597;48.730;9.114;2022-11-23T07:55:00;14.03;;;6.43;;
9124;SDS011;4597;48.730;9.114;2022-11-23T07:57:26;18.37;;;7.00;;
9124;SDS011;4597;48.730;9.114;2022-11-23T07:59:52;15.57;;;7.40;;
9124;SDS011;4597;48.730;9.114;2022-11-23T08:02:17;19.40;;;7.67;;
9124;SDS011;4597;48.730;9.114;2022-11-23T08:04:43;13.10;;;6.37;;
9124;SDS011;4597;48.730;9.114;2022-11-23T08:07:09;7.00;;;3.10;;
9124;SDS011;4597;48.730;9.114;2022-11-23T08:09:35;3.17;;;2.20;;
9124;SDS011;4597;48.730;9.114;2022-11-23T08:12:01;6.80;;;2.20;;
9124;SDS011;4597;48.730;9.114;2022-11-23T08:14:26;7.43;;;2.80;;
9124;SDS011;4597;48.730;9.114;2022-11-23T08:16:52;4.83;;;2.30;;
9124;SDS011;4597;48.730;9.114;2022-11-23T08:19:17;3.33;;;2.23;;
9124;SDS011;4597;48.730;9.114;2022-11-23T08:21:43;3.93;;;1.80;;
9124;SDS011;4597;48.730;9.114;2022-11-23T08:24:09;5.63;;;1.80;;
9124;SDS011;4597;48.730;9.114;2022-11-23T08:26:35;5.40;;;2.53;;
9124;SDS011;4597;48.730;9.114;2022-11-23T08:29:01;6.37;;;2.20;;
9124;SDS011;4597;48.730;9.114;2022-11-23T08:31:27;6.63;;;2.33;;
9124;SDS011;4597;48.730;9.114;2022-11-23T08:33:52;6.93;;;3.10;;
9124;SDS011;4597;48.730;9.114;2022-11-23T08:36:18;8.93;;;3.43;;
9124;SDS011;4597;48.730;9.114;2022-11-23T08:38:44;5.07;;;2.40;;
9124;SDS011;4597;48.730;9.114;2022-11-23T08:41:09;5.97;;;2.40;;
9124;SDS011;4597;48.730;9.114;2022-11-23T08:43:35;5.40;;;2.77;;
9124;SDS011;4597;48.730;9.114;2022-11-23T08:46:01;5.67;;;2.63;;
9124;SDS011;4597;48.730;9.114;2022-11-23T08:48:27;6.90;;;2.67;;
9124;SDS011;4597;48.730;9.114;2022-11-23T08:50:53;5.17;;;2.60;;
9124;SDS011;4597;48.730;9.114;2022-11-23T08:53:22;5.37;;;2.60;;
9124;SDS011;4597;48.730;9.114;2022-11-23T08:55:48;3.80;;;2.10;;
9124;SDS011;4597;48.730;9.114;2022-11-23T08:58:13;4.80;;;2.10;;
9124;SDS011;4597;48.730;9.114;2022-11-23T09:00:39;5.10;;;2.27;;
9124;SDS011;4597;48.730;9.114;2022-11-23T09:03:04;3.33;;;2.00;;
9124;SDS011;4597;48.730;9.114;2022-11-23T09:05:30;4.67;;;2.03;;
9124;SDS011;4597;48.730;9.114;2022-11-23T09:07:58;2.33;;;1.87;;
9124;SDS011;4597;48.730;9.114;2022-11-23T09:10:25;4.90;;;2.20;;
9124;SDS011;4597;48.730;9.114;2022-11-23T09:12:50;5.00;;;1.83;;
9124;SDS011;4597;48.730;9.114;2022-11-23T09:15:16;4.13;;;2.73;;
9124;SDS011;4597;48.730;9.114;2022-11-23T09:17:42;4.63;;;2.03;;
9124;SDS011;4597;48.730;9.114;2022-11-23T09:20:08;3.33;;;1.63;;
9124;SDS011;4597;48.730;9.114;2022-11-23T09:22:34;4.33;;;1.60;;
9124;SDS011;4597;48.730;9.114;2022-11-23T09:25:00;2.70;;;1.80;;
9124;SDS011;4597;48.730;9.114;2022-11-23T09:27:26;5.10;;;1.70;;
9124;SDS011;4597;48.730;9.114;2022-11-23T09:29:52;5.37;;;1.77;;
9124;SDS011;4597;48.730;9.114;2022-11-23T09:32:17;5.53;;;2.20;;
9124;SDS011;4597;48.730;9.114;2022-11-23T09:34:43;5.63;;;1.90;;
9124;SDS011;4597;48.730;9.114;2022-11-23T09:37:09;3.17;;;1.57;;
9124;SDS011;4597;48.730;9.114;2022-11-23T09:39:35;5.33;;;1.93;;
9124;SDS011;4597;48.730;9.114;2022-11-23T09:44:45;4.40;;;2.03;;
9124;SDS011;4597;48.730;9.114;2022-11-23T09:52:39;4.63;;;1.87;;
9124;SDS011;4597;48.730;9.114;2022-11-23T09:55:28;5.87;;;2.03;;
9124;SDS011;4597;48.730;9.114;2022-11-23T09:58:03;3.77;;;1.87;;
9124;SDS011;4597;48.730;9.114;2022-11-23T10:00:36;3.20;;;1.97;;
9124;SDS011;4597;48.730;9.114;2022-11-23T10:03:12;4.03;;;1.80;;
9124;SDS011;4597;48.730;9.114;2022-11-23T10:05:40;4.67;;;1.63;;
9124;SDS011;4597;48.730;9.114;2022-11-23T10:08:35;5.60;;;1.93;;
9124;SDS011;4597;48.730;9.114;2022-11-23T10:19:24;9.63;;;2.30;;
9124;SDS011;4597;48.730;9.114;2022-11-23T10:24:48;4.37;;;1.80;;
9124;SDS011;4597;48.730;9.114;2022-11-23T10:27:17;2.93;;;1.90;;
9124;SDS011;4597;48.730;9.114;2022-11-23T10:29:47;6.40;;;2.00;;
9124;SDS011;4597;48.730;9.114;2022-11-23T10:37:37;3.10;;;1.63;;
9124;SDS011;4597;48.730;9.114;2022-11-23T10:40:11;4.60;;;2.40;;
9124;SDS011;4597;48.730;9.114;2022-11-23T10:42:44;6.93;;;2.03;;
9124;SDS011;4597;48.730;9.114;2022-11-23T10:45:23;3.73;;;1.87;;
9124;SDS011;4597;48.730;9.114;2022-11-23T10:55:31;2.93;;;1.37;;
9124;SDS011;4597;48.730;9.114;2022-11-23T10:57:58;3.53;;;1.50;;
9124;SDS011;4597;48.730;9.114;2022-11-23T11:00:26;4.07;;;1.63;;
9124;SDS011;4597;48.730;9.114;2022-11-23T11:02:53;7.10;;;2.60;;
9124;SDS011;4597;48.730;9.114;2022-11-23T11:05:33;9.23;;;1.73;;
9124;SDS011;4597;48.730;9.114;2022-11-23T11:08:02;3.03;;;1.90;;
9124;SDS011;4597;48.730;9.114;2022-11-23T11:10:38;7.17;;;2.00;;
9124;SDS011;4597;48.730;9.114;2022-11-23T11:15:52;4.40;;;2.03;;
9124;SDS011;4597;48.730;9.114;2022-11-23T11:18:19;2.50;;;1.50;;
9124;SDS011;4597;48.730;9.114;2022-11-23T11:20:45;4.13;;;1.53;;
9124;SDS011;4597;48.730;9.114;2022-11-23T11:23:15;2.53;;;1.80;;
9124;SDS011;4597;48.730;9.114;2022-11-23T11:25:43;2.30;;;1.30;;
9124;SDS011;4597;48.730;9.114;2022-11-23T11:28:18;3.07;;;1.70;;
9124;SDS011;4597;48.730;9.114;2022-11-23T11:33:22;2.70;;;1.63;;
9124;SDS011;4597;48.730;9.114;2022-11-23T11:35:54;2.60;;;1.70;;
9124;SDS011;4597;48.730;9.114;2022-11-23T11:38:23;1.97;;;1.53;;
9124;SDS011;4597;48.730;9.114;2022-11-23T11:40:56;3.47;;;1.50;;
9124;SDS011;4597;48.730;9.114;2022-11-23T11:43:28;4.93;;;2.17;;
9124;SDS011;4597;48.730;9.114;2022-11-23T11:45:57;2.63;;;1.90;;
9124;SDS011;4597;48.730;9.114;2022-11-23T11:51:05;3.10;;;2.00;;
9124;SDS011;4597;48.730;9.114;2022-11-23T11:53:35;1.40;;;1.30;;
9124;SDS011;4597;48.730;9.114;2022-11-23T11:59:21;5.10;;;1.30;;
9124;SDS011;4597;48.730;9.114;2022-11-23T12:01:56;3.03;;;1.50;;
9124;SDS011;4597;48.730;9.114;2022-11-23T12:05:10;2.40;;;1.40;;
9124;SDS011;4597;48.730;9.114;2022-11-23T12:07:40;4.03;;;1.70;;
9124;SDS011;4597;48.730;9.114;2022-11-23T12:10:16;4.53;;;1.30;;
9124;SDS011;4597;48.730;9.114;2022-11-23T12:12:45;2.53;;;1.53;;
9124;SDS011;4597;48.730;9.114;2022-11-23T12:15:19;1.50;;;1.40;;
9124;SDS011;4597;48.730;9.114;2022-11-23T12:17:51;1.47;;;1.30;;
9124;SDS011;4597;48.730;9.114;2022-11-23T12:20:36;1.33;;;1.23;;
9124;SDS011;4597;48.730;9.114;2022-11-23T12:26:33;2.80;;;1.70;;
9124;SDS011;4597;48.730;9.114;2022-11-23T12:29:06;3.07;;;1.97;;
9124;SDS011;4597;48.730;9.114;2022-11-23T12:31:42;2.33;;;1.70;;
9124;SDS011;4597;48.730;9.114;2022-11-23T12:34:23;1.90;;;1.80;;
9124;SDS011;4597;48.730;9.114;2022-11-23T12:42:45;3.13;;;2.10;;
9124;SDS011;4597;48.730;9.114;2022-11-23T12:59:23;2.33;;;1.67;;
9124;SDS011;4597;48.730;9.114;2022-11-23T13:01:53;1.47;;;1.30;;
9124;SDS011;4597;48.730;9.114;2022-11-23T13:12:28;4.57;;;1.67;;
9124;SDS011;4597;48.730;9.114;2022-11-23T13:18:34;3.37;;;1.60;;
9124;SDS011;4597;48.730;9.114;2022-11-23T13:21:24;1.67;;;1.47;;
9124;SDS011;4597;48.730;9.114;2022-11-23T13:24:03;3.23;;;1.70;;
9124;SDS011;4597;48.730;9.114;2022-11-23T13:26:47;2.73;;;1.60;;
9124;SDS011;4597;48.730;9.114;2022-11-23T13:29:45;2.67;;;1.23;;
9124;SDS011;4597;48.730;9.114;2022-11-23T13:32:33;2.03;;;1.53;;
9124;SDS011;4597;48.730;9.114;2022-11-23T13:40:25;1.90;;;1.40;;
9124;SDS011;4597;48.730;9.114;2022-11-23T13:43:37;2.10;;;1.30;;
9124;SDS011;4597;48.730;9.114;2022-11-23T13:48:52;5.43;;;1.80;;
9124;SDS011;4597;48.730;9.114;2022-11-23T13:51:30;1.97;;;1.20;;
9124;SDS011;4597;48.730;9.114;2022-11-23T13:56:45;1.90;;;1.53;;
9124;SDS011;4597;48.730;9.114;2022-11-23T14:02:14;2.30;;;1.87;;
9124;SDS011;4597;48.730;9.114;2022-11-23T14:04:49;3.70;;;1.47;;
9124;SDS011;4597;48.730;9.114;2022-11-23T14:07:21;1.73;;;1.40;;
9124;SDS011;4597;48.730;9.114;2022-11-23T14:10:05;1.93;;;1.37;;
9124;SDS011;4597;48.730;9.114;2022-11-23T14:12:48;3.73;;;1.53;;
9124;SDS011;4597;48.730;9.114;2022-11-23T14:15:30;1.97;;;1.73;;
9124;SDS011;4597;48.730;9.114;2022-11-23T14:20:41;2.47;;;1.50;;
9124;SDS011;4597;48.730;9.114;2022-11-23T14:29:11;1.57;;;1.47;;
9124;SDS011;4597;48.730;9.114;2022-11-23T14:43:09;1.97;;;1.57;;
9124;SDS011;4597;48.730;9.114;2022-11-23T14:45:37;2.43;;;1.70;;
9124;SDS011;4597;48.730;9.114;2022-11-23T14:50:53;4.93;;;4.43;;
9124;SDS011;4597;48.730;9.114;2022-11-23T14:53:22;6.27;;;5.63;;
9124;SDS011;4597;48.730;9.114;2022-11-23T14:55:51;11.63;;;9.63;;
9124;SDS011;4597;48.730;9.114;2022-11-23T14:58:17;9.27;;;8.33;;
9124;SDS011;4597;48.730;9.114;2022-11-23T15:00:43;4.60;;;4.20;;
9124;SDS011;4597;48.730;9.114;2022-11-23T15:03:13;4.20;;;2.67;;
9124;SDS011;4597;48.730;9.114;2022-11-23T15:05:42;2.87;;;2.37;;
9124;SDS011;4597;48.730;9.114;2022-11-23T15:08:24;3.17;;;1.77;;
9124;SDS011;4597;48.730;9.114;2022-11-23T15:10:58;2.30;;;1.70;;
9124;SDS011;4597;48.730;9.114;2022-11-23T15:13:52;1.60;;;1.50;;
9124;SDS011;4597;48.730;9.114;2022-11-23T15:16:19;1.63;;;1.50;;
9124;SDS011;4597;48.730;9.114;2022-11-23T15:18:46;1.27;;;1.17;;
9124;SDS011;4597;48.730;9.114;2022-11-23T15:21:17;2.57;;;1.10;;
9124;SDS011;4597;48.730;9.114;2022-11-23T15:23:45;1.87;;;1.17;;
9124;SDS011;4597;48.730;9.114;2022-11-23T15:26:15;1.37;;;1.20;;
9124;SDS011;4597;48.730;9.114;2022-11-23T15:28:43;1.50;;;1.10;;
9124;SDS011;4597;48.730;9.114;2022-11-23T15:31:16;1.53;;;1.20;;
9124;SDS011;4597;48.730;9.114;2022-11-23T15:33:54;2.37;;;1.20;;
9124;SDS011;4597;48.730;9.114;2022-11-23T15:36:27;2.03;;;1.27;;
9124;SDS011;4597;48.730;9.114;2022-11-23T15:38:55;2.53;;;1.20;;
9124;SDS011;4597;48.730;9.114;2022-11-23T15:41:22;1.13;;;1.03;;
9124;SDS011;4597;48.730;9.114;2022-11-23T15:43:53;3.83;;;1.27;;
9124;SDS011;4597;48.730;9.114;2022-11-23T15:46:21;3.40;;;1.70;;
9124;SDS011;4597;48.730;9.114;2022-11-23T15:48:52;4.20;;;3.30;;
9124;SDS011;4597;48.730;9.114;2022-11-23T15:51:25;7.77;;;5.47;;
9124;SDS011;4597;48.730;9.114;2022-11-23T15:53:58;5.00;;;4.40;;
9124;SDS011;4597;48.730;9.114;2022-11-23T15:58:57;5.87;;;4.70;;
9124;SDS011;4597;48.730;9.114;2022-11-23T16:01:43;5.50;;;4.60;;
9124;SDS011;4597;48.730;9.114;2022-11-23T16:04:22;7.30;;;5.07;;
9124;SDS011;4597;48.730;9.114;2022-11-23T16:07:05;8.83;;;4.30;;
9124;SDS011;4597;48.730;9.114;2022-11-23T16:12:45;5.23;;;2.77;;
9124;SDS011;4597;48.730;9.114;2022-11-23T16:18:00;19.10;;;10.07;;
9124;SDS011;4597;48.730;9.114;2022-11-23T16:20:27;24.87;;;9.67;;
9124;SDS011;4597;48.730;9.114;2022-11-23T16:22:54;15.63;;;6.00;;
9124;SDS011;4597;48.730;9.114;2022-11-23T16:25:30;13.80;;;6.70;;
9124;SDS011;4597;48.730;9.114;2022-11-23T16:30:40;9.03;;;3.80;;
9124;SDS011;4597;48.730;9.114;2022-11-23T16:33:14;3.27;;;2.57;;
9124;SDS011;4597;48.730;9.114;2022-11-23T16:35:41;4.50;;;3.30;;
9124;SDS011;4597;48.730;9.114;2022-11-23T16:38:07;4.63;;;3.00;;
9124;SDS011;4597;48.730;9.114;2022-11-23T16:40:32;3.87;;;3.53;;
9124;SDS011;4597;48.730;9.114;2022-11-23T16:42:58;11.07;;;7.10;;
9124;SDS011;4597;48.730;9.114;2022-11-23T16:45:24;32.13;;;28.70;;
9124;SDS011;4597;48.730;9.114;2022-11-23T16:47:51;14.23;;;12.83;;
9124;SDS011;4597;48.730;9.114;2022-11-23T16:50:18;14.07;;;7.63;;
9124;SDS011;4597;48.730;9.114;2022-11-23T16:52:45;5.40;;;4.90;;
9124;SDS011;4597;48.730;9.114;2022-11-23T16:55:11;4.33;;;3.57;;
9124;SDS011;4597;48.730;9.114;2022-11-23T16:57:36;4.20;;;3.80;;
9124;SDS011;4597;48.730;9.114;2022-11-23T17:00:04;6.67;;;5.20;;
9124;SDS011;4597;48.730;9.114;2022-11-23T17:02:31;9.87;;;5.53;;
9124;SDS011;4597;48.730;9.114;2022-11-23T17:04:57;5.83;;;4.10;;
9124;SDS011;4597;48.730;9.114;2022-11-23T17:07:23;3.67;;;3.23;;
9124;SDS011;4597;48.730;9.114;2022-11-23T17:09:48;3.17;;;2.87;;
9124;SDS011;4597;48.730;9.114;2022-11-23T17:12:17;3.43;;;2.60;;
9124;SDS011;4597;48.730;9.114;2022-11-23T17:14:45;3.27;;;2.77;;
9124;SDS011;4597;48.730;9.114;2022-11-23T17:17:21;5.40;;;2.73;;
9124;SDS011;4597;48.730;9.114;2022-11-23T17:19:47;4.90;;;3.10;;
9124;SDS011;4597;48.730;9.114;2022-11-23T17:22:14;6.60;;;5.20;;
9124;SDS011;4597;48.730;9.114;2022-11-23T17:24:44;5.80;;;5.30;;
9124;SDS011;4597;48.730;9.114;2022-11-23T17:27:11;10.57;;;9.53;;
9124;SDS011;4597;48.730;9.114;2022-11-23T17:29:40;11.47;;;10.37;;
9124;SDS011;4597;48.730;9.114;2022-11-23T17:32:08;8.10;;;7.40;;